Elwood, Indiana
Current Conditions -  °F | °C
As of 9:35 AM on Friday 31 Oct 2014 (Local Time) from KMZZ Reporting Station
Light Rain Light Rain  
Wind Chill:   Ceiling: 2000
Heat Index:   Visibility: 5mi
Dew Point:   Wind: 10mph
Humidity: 85%   Direction: 340°NNW
Pressure: 29.98"   Gusts: 18mph
Location:  40.28°N, 85.82°W
Report Text: KMZZ 311335Z AUTO 34009G16KT 5SM -RA SCT012 BKN020 OVC027 05/02 A2998 RMK AO2 T00460022
Loading
Personal Weather Stations






























Interactive Weather Map
Tropical Storm Tracking
New forecast layout! Learn more

10-Day Weather Forecast

Advertisements
Track Severe Weather on mobile